sensor_id;sensor_type;location;lat;lon;timestamp;pressure;altitude;pressure_sealevel;temperature;humidity
48964;BME280;34776;48.180;16.420;2023-02-28T00:01:14;100863.41;;;1.36;54.98
48964;BME280;34776;48.180;16.420;2023-02-28T00:03:39;100857.31;;;1.40;55.12
48964;BME280;34776;48.180;16.420;2023-02-28T00:06:06;100857.31;;;1.42;54.77
48964;BME280;34776;48.180;16.420;2023-02-28T00:08:31;100859.94;;;1.44;54.78
48964;BME280;34776;48.180;16.420;2023-02-28T00:11:01;100856.47;;;1.41;55.00
48964;BME280;34776;48.180;16.420;2023-02-28T00:13:26;100863.44;;;1.42;55.05
48964;BME280;34776;48.180;16.420;2023-02-28T00:16:03;100863.44;;;1.42;55.05
48964;BME280;34776;48.180;16.420;2023-02-28T00:18:29;100865.19;;;1.47;55.04
48964;BME280;34776;48.180;16.420;2023-02-28T00:20:54;100866.06;;;1.44;55.09
48964;BME280;34776;48.180;16.420;2023-02-28T00:23:20;100872.16;;;1.41;55.05
48964;BME280;34776;48.180;16.420;2023-02-28T00:25:45;100862.56;;;1.44;55.14
48964;BME280;34776;48.180;16.420;2023-02-28T00:28:10;100864.31;;;1.43;55.22
48964;BME280;34776;48.180;16.420;2023-02-28T00:30:36;100866.03;;;1.42;55.20
48964;BME280;34776;48.180;16.420;2023-02-28T00:33:01;100866.91;;;1.45;55.16
48964;BME280;34776;48.180;16.420;2023-02-28T00:35:26;100868.69;;;1.44;55.27
48964;BME280;34776;48.180;16.420;2023-02-28T00:37:52;100880.03;;;1.45;55.17
48964;BME280;34776;48.180;16.420;2023-02-28T00:40:17;100875.66;;;1.42;55.34
48964;BME280;34776;48.180;16.420;2023-02-28T00:42:43;100874.81;;;1.43;55.25
48964;BME280;34776;48.180;16.420;2023-02-28T00:45:09;100876.53;;;1.44;55.23
48964;BME280;34776;48.180;16.420;2023-02-28T00:47:35;100866.06;;;1.44;55.26
48964;BME280;34776;48.180;16.420;2023-02-28T00:50:00;100873.06;;;1.48;55.26
48964;BME280;34776;48.180;16.420;2023-02-28T00:52:26;100873.09;;;1.51;55.24
48964;BME280;34776;48.180;16.420;2023-02-28T00:54:51;100876.53;;;1.49;55.33
48964;BME280;34776;48.180;16.420;2023-02-28T00:57:16;100869.56;;;1.48;55.19
48964;BME280;34776;48.180;16.420;2023-02-28T00:59:42;100866.94;;;1.52;55.25
48964;BME280;34776;48.180;16.420;2023-02-28T01:02:07;100873.94;;;1.52;55.13
48964;BME280;34776;48.180;16.420;2023-02-28T01:04:32;100865.19;;;1.47;55.33
48964;BME280;34776;48.180;16.420;2023-02-28T01:06:58;100872.19;;;1.48;55.13
48964;BME280;34776;48.180;16.420;2023-02-28T01:09:23;100869.56;;;1.51;55.01
48964;BME280;34776;48.180;16.420;2023-02-28T01:11:48;100868.69;;;1.55;55.12
48964;BME280;34776;48.180;16.420;2023-02-28T01:14:16;100875.69;;;1.53;55.20
48964;BME280;34776;48.180;16.420;2023-02-28T01:16:42;100873.06;;;1.53;55.02
48964;BME280;34776;48.180;16.420;2023-02-28T01:19:07;100881.78;;;1.50;55.17
48964;BME280;34776;48.180;16.420;2023-02-28T01:21:33;100883.53;;;1.48;55.25
48964;BME280;34776;48.180;16.420;2023-02-28T01:24:00;100884.41;;;1.49;55.13
48964;BME280;34776;48.180;16.420;2023-02-28T01:26:25;100884.41;;;1.46;55.06
48964;BME280;34776;48.180;16.420;2023-02-28T01:28:51;100889.63;;;1.42;55.19
48964;BME280;34776;48.180;16.420;2023-02-28T01:31:19;100883.50;;;1.37;55.33
48964;BME280;34776;48.180;16.420;2023-02-28T01:33:45;100880.88;;;1.37;55.32
48964;BME280;34776;48.180;16.420;2023-02-28T01:36:13;100887.84;;;1.35;55.24
48964;BME280;34776;48.180;16.420;2023-02-28T01:38:39;100881.75;;;1.35;55.18
48964;BME280;34776;48.180;16.420;2023-02-28T01:41:06;100879.13;;;1.36;55.32
48964;BME280;34776;48.180;16.420;2023-02-28T01:46:18;100886.09;;;1.34;55.33
48964;BME280;34776;48.180;16.420;2023-02-28T01:51:27;100889.63;;;1.39;55.27
48964;BME280;34776;48.180;16.420;2023-02-28T01:54:02;100896.63;;;1.44;54.96
48964;BME280;34776;48.180;16.420;2023-02-28T01:56:32;100893.97;;;1.42;54.95
48964;BME280;34776;48.180;16.420;2023-02-28T01:58:59;100889.63;;;1.42;54.81
48964;BME280;34776;48.180;16.420;2023-02-28T02:01:26;100889.63;;;1.42;54.96
48964;BME280;34776;48.180;16.420;2023-02-28T02:03:55;100887.00;;;1.39;55.11
48964;BME280;34776;48.180;16.420;2023-02-28T02:06:31;100885.22;;;1.34;55.08
48964;BME280;34776;48.180;16.420;2023-02-28T02:08:59;100884.38;;;1.35;55.17
48964;BME280;34776;48.180;16.420;2023-02-28T02:11:25;100887.81;;;1.32;55.03
48964;BME280;34776;48.180;16.420;2023-02-28T02:19:56;100893.94;;;1.28;55.14
48964;BME280;34776;48.180;16.420;2023-02-28T02:36:37;100879.91;;;1.11;55.02
48964;BME280;34776;48.180;16.420;2023-02-28T02:39:19;100889.47;;;1.04;55.26
48964;BME280;34776;48.180;16.420;2023-02-28T02:41:58;100890.34;;;1.05;55.37
48964;BME280;34776;48.180;16.420;2023-02-28T02:44:32;100890.38;;;1.12;55.30
48964;BME280;34776;48.180;16.420;2023-02-28T02:47:12;100886.88;;;1.10;55.34
48964;BME280;34776;48.180;16.420;2023-02-28T02:49:43;100881.66;;;1.07;55.45
48964;BME280;34776;48.180;16.420;2023-02-28T02:52:14;100883.38;;;1.07;55.45
48964;BME280;34776;48.180;16.420;2023-02-28T02:54:42;100880.75;;;1.07;55.48
48964;BME280;34776;48.180;16.420;2023-02-28T02:57:35;100897.34;;;1.07;55.71
48964;BME280;34776;48.180;16.420;2023-02-28T03:00:04;100888.66;;;1.14;55.47
48964;BME280;34776;48.180;16.420;2023-02-28T03:02:34;100886.00;;;1.13;55.40
48964;BME280;34776;48.180;16.420;2023-02-28T03:05:04;100885.97;;;1.07;55.63
48964;BME280;34776;48.180;16.420;2023-02-28T03:07:31;100891.22;;;1.04;55.33
48964;BME280;34776;48.180;16.420;2023-02-28T03:09:57;100890.31;;;0.95;55.60
48964;BME280;34776;48.180;16.420;2023-02-28T03:12:40;100893.75;;;0.87;55.90
48964;BME280;34776;48.180;16.420;2023-02-28T03:20:31;100882.22;;;0.58;56.59
48964;BME280;34776;48.180;16.420;2023-02-28T03:28:15;100876.91;;;0.46;56.77
48964;BME280;34776;48.180;16.420;2023-02-28T03:33:33;100889.13;;;0.47;56.61
48964;BME280;34776;48.180;16.420;2023-02-28T03:36:04;100889.09;;;0.46;56.25
48964;BME280;34776;48.180;16.420;2023-02-28T03:38:35;100892.59;;;0.46;56.60
48964;BME280;34776;48.180;16.420;2023-02-28T03:41:13;100883.91;;;0.47;56.63
48964;BME280;34776;48.180;16.420;2023-02-28T03:43:43;100884.81;;;0.51;56.64
48964;BME280;34776;48.180;16.420;2023-02-28T03:46:12;100888.28;;;0.54;56.62
48964;BME280;34776;48.180;16.420;2023-02-28T03:48:44;100894.44;;;0.63;56.56
48964;BME280;34776;48.180;16.420;2023-02-28T03:51:15;100891.91;;;0.70;56.34
48964;BME280;34776;48.180;16.420;2023-02-28T03:53:50;100888.44;;;0.74;56.63
48964;BME280;34776;48.180;16.420;2023-02-28T03:56:19;100883.19;;;0.70;57.80
48964;BME280;34776;48.180;16.420;2023-02-28T03:58:51;100889.34;;;0.81;56.44
48964;BME280;34776;48.180;16.420;2023-02-28T04:01:26;100882.41;;;0.86;56.53
48964;BME280;34776;48.180;16.420;2023-02-28T04:03:53;100892.03;;;0.93;56.37
48964;BME280;34776;48.180;16.420;2023-02-28T04:06:20;100885.94;;;1.00;56.25
48964;BME280;34776;48.180;16.420;2023-02-28T04:08:47;100888.59;;;1.04;56.25
48964;BME280;34776;48.180;16.420;2023-02-28T04:11:20;100891.22;;;1.08;56.28
48964;BME280;34776;48.180;16.420;2023-02-28T04:13:46;100884.28;;;1.12;56.22
48964;BME280;34776;48.180;16.420;2023-02-28T04:16:12;100886.00;;;1.13;56.36
48964;BME280;34776;48.180;16.420;2023-02-28T04:18:38;100882.50;;;1.11;56.63
48964;BME280;34776;48.180;16.420;2023-02-28T04:21:05;100887.75;;;1.11;56.37
48964;BME280;34776;48.180;16.420;2023-02-28T04:23:30;100891.25;;;1.13;56.67
48964;BME280;34776;48.180;16.420;2023-02-28T04:25:56;100893.84;;;1.04;56.46
48964;BME280;34776;48.180;16.420;2023-02-28T04:28:21;100892.88;;;0.92;56.77
48964;BME280;34776;48.180;16.420;2023-02-28T04:30:47;100892.81;;;0.77;56.91
48964;BME280;34776;48.180;16.420;2023-02-28T04:33:12;100898.84;;;0.67;57.08
48964;BME280;34776;48.180;16.420;2023-02-28T04:35:38;100890.06;;;0.57;57.29
48964;BME280;34776;48.180;16.420;2023-02-28T04:38:03;100894.34;;;0.47;57.43
48964;BME280;34776;48.180;16.420;2023-02-28T04:40:28;100900.41;;;0.40;57.77
48964;BME280;34776;48.180;16.420;2023-02-28T04:42:54;100902.09;;;0.32;57.83
48964;BME280;34776;48.180;16.420;2023-02-28T04:45:19;100896.78;;;0.23;58.13
48964;BME280;34776;48.180;16.420;2023-02-28T04:47:44;100903.72;;;0.17;58.48
48964;BME280;34776;48.180;16.420;2023-02-28T04:50:10;100901.94;;;0.16;58.43
48964;BME280;34776;48.180;16.420;2023-02-28T04:52:35;100896.72;;;0.15;58.38
48964;BME280;34776;48.180;16.420;2023-02-28T04:55:01;100899.31;;;0.13;58.65
48964;BME280;34776;48.180;16.420;2023-02-28T04:57:26;100904.50;;;0.10;58.81
48964;BME280;34776;48.180;16.420;2023-02-28T04:59:52;100898.41;;;0.07;58.92
48964;BME280;34776;48.180;16.420;2023-02-28T05:02:17;100904.44;;;0.04;59.23
48964;BME280;34776;48.180;16.420;2023-02-28T05:04:42;100897.47;;;0.03;59.08
48964;BME280;34776;48.180;16.420;2023-02-28T05:07:08;100907.09;;;0.07;58.74
48964;BME280;34776;48.180;16.420;2023-02-28T05:09:33;100909.72;;;0.07;59.12
48964;BME280;34776;48.180;16.420;2023-02-28T05:11:58;100904.50;;;0.07;59.31
48964;BME280;34776;48.180;16.420;2023-02-28T05:14:24;100907.09;;;0.07;59.36
48964;BME280;34776;48.180;16.420;2023-02-28T05:16:49;100903.63;;;0.07;59.58
48964;BME280;34776;48.180;16.420;2023-02-28T05:19:14;100898.41;;;0.07;59.81
48964;BME280;34776;48.180;16.420;2023-02-28T05:21:41;100906.28;;;0.11;59.65
48964;BME280;34776;48.180;16.420;2023-02-28T05:24:10;100900.22;;;0.15;59.56
48964;BME280;34776;48.180;16.420;2023-02-28T05:26:42;100902.84;;;0.17;59.52
48964;BME280;34776;48.180;16.420;2023-02-28T05:29:08;100906.28;;;0.14;59.67
48964;BME280;34776;48.180;16.420;2023-02-28T05:31:34;100913.22;;;0.09;59.91
48964;BME280;34776;48.180;16.420;2023-02-28T05:34:00;100913.22;;;0.09;59.99
48964;BME280;34776;48.180;16.420;2023-02-28T05:36:25;100913.22;;;0.09;60.32
48964;BME280;34776;48.180;16.420;2023-02-28T05:38:51;100921.91;;;0.08;60.52
48964;BME280;34776;48.180;16.420;2023-02-28T05:41:18;100918.41;;;0.06;60.74
48964;BME280;34776;48.180;16.420;2023-02-28T05:43:45;100921.91;;;0.08;60.73
48964;BME280;34776;48.180;16.420;2023-02-28T05:46:11;100921.94;;;0.11;60.80
48964;BME280;34776;48.180;16.420;2023-02-28T05:48:39;100929.84;;;0.17;60.64
48964;BME280;34776;48.180;16.420;2023-02-28T05:51:06;100928.16;;;0.24;60.67
48964;BME280;34776;48.180;16.420;2023-02-28T05:53:32;100934.38;;;0.37;60.58
48964;BME280;34776;48.180;16.420;2023-02-28T05:55:57;100935.28;;;0.42;60.28
48964;BME280;34776;48.180;16.420;2023-02-28T05:58:23;100934.44;;;0.46;60.57
48964;BME280;34776;48.180;16.420;2023-02-28T06:00:50;100930.16;;;0.53;60.54
48964;BME280;34776;48.180;16.420;2023-02-28T06:03:16;100934.53;;;0.58;60.84
48964;BME280;34776;48.180;16.420;2023-02-28T06:05:41;100934.63;;;0.71;60.56
48964;BME280;34776;48.180;16.420;2023-02-28T06:08:07;100941.72;;;0.84;60.33
48964;BME280;34776;48.180;16.420;2023-02-28T06:10:33;100938.25;;;0.91;60.17
48964;BME280;34776;48.180;16.420;2023-02-28T06:13:00;100939.19;;;1.01;60.04
48964;BME280;34776;48.180;16.420;2023-02-28T06:15:27;100934.81;;;1.05;59.98
48964;BME280;34776;48.180;16.420;2023-02-28T06:17:53;100935.75;;;1.13;59.59
48964;BME280;34776;48.180;16.420;2023-02-28T06:20:18;100939.28;;;1.18;59.55
48964;BME280;34776;48.180;16.420;2023-02-28T06:22:43;100943.63;;;1.19;59.49
48964;BME280;34776;48.180;16.420;2023-02-28T06:25:10;100950.66;;;1.29;59.39
48964;BME280;34776;48.180;16.420;2023-02-28T06:27:35;100948.97;;;1.39;59.33
48964;BME280;34776;48.180;16.420;2023-02-28T06:30:01;100947.25;;;1.49;59.15
48964;BME280;34776;48.180;16.420;2023-02-28T06:32:26;100943.81;;;1.59;58.67
48964;BME280;34776;48.180;16.420;2023-02-28T06:34:52;100952.56;;;1.64;58.37
48964;BME280;34776;48.180;16.420;2023-02-28T06:37:18;100957.81;;;1.76;58.32
48964;BME280;34776;48.180;16.420;2023-02-28T06:39:43;100954.34;;;1.80;58.18
48964;BME280;34776;48.180;16.420;2023-02-28T06:42:09;100957.88;;;1.86;58.39
48964;BME280;34776;48.180;16.420;2023-02-28T06:44:35;100953.53;;;1.94;57.98
48964;BME280;34776;48.180;16.420;2023-02-28T06:47:01;100953.53;;;2.03;57.97
48964;BME280;34776;48.180;16.420;2023-02-28T06:49:32;100964.03;;;2.09;57.88
48964;BME280;34776;48.180;16.420;2023-02-28T06:51:57;100966.69;;;2.12;57.93
48964;BME280;34776;48.180;16.420;2023-02-28T06:54:23;100971.94;;;2.28;57.58
48964;BME280;34776;48.180;16.420;2023-02-28T06:56:48;100971.06;;;2.36;57.40
48964;BME280;34776;48.180;16.420;2023-02-28T06:59:14;100964.97;;;2.42;57.34
48964;BME280;34776;48.180;16.420;2023-02-28T07:01:40;100965.84;;;2.59;57.03
48964;BME280;34776;48.180;16.420;2023-02-28T07:04:06;100957.09;;;2.65;56.90
48964;BME280;34776;48.180;16.420;2023-02-28T07:06:32;100964.97;;;2.71;56.91
48964;BME280;34776;48.180;16.420;2023-02-28T07:08:58;100960.56;;;2.85;56.77
48964;BME280;34776;48.180;16.420;2023-02-28T07:11:26;100954.44;;;3.00;56.56
48964;BME280;34776;48.180;16.420;2023-02-28T07:13:56;100963.13;;;3.15;56.21
48964;BME280;34776;48.180;16.420;2023-02-28T07:16:22;100956.09;;;3.26;55.88
48964;BME280;34776;48.180;16.420;2023-02-28T07:18:48;100953.41;;;3.40;55.90
48964;BME280;34776;48.180;16.420;2023-02-28T07:21:13;100955.13;;;3.52;55.42
48964;BME280;34776;48.180;16.420;2023-02-28T07:23:39;100950.66;;;3.69;55.19
48964;BME280;34776;48.180;16.420;2023-02-28T07:26:05;100959.34;;;3.90;54.96
48964;BME280;34776;48.180;16.420;2023-02-28T07:28:31;100962.75;;;4.05;54.47
48964;BME280;34776;48.180;16.420;2023-02-28T07:31:03;100960.94;;;4.15;54.16
48964;BME280;34776;48.180;16.420;2023-02-28T07:33:28;100966.09;;;4.27;54.05
48964;BME280;34776;48.180;16.420;2023-02-28T07:36:03;100970.38;;;4.42;53.62
48964;BME280;34776;48.180;16.420;2023-02-28T07:38:28;100971.09;;;4.63;53.54
48964;BME280;34776;48.180;16.420;2023-02-28T07:40:53;100974.56;;;4.70;52.97
48964;BME280;34776;48.180;16.420;2023-02-28T07:43:19;100976.28;;;4.77;52.93
48964;BME280;34776;48.180;16.420;2023-02-28T07:45:44;100969.19;;;4.80;52.80
48964;BME280;34776;48.180;16.420;2023-02-28T07:48:09;100978.00;;;4.81;52.57
48964;BME280;34776;48.180;16.420;2023-02-28T07:50:35;100982.44;;;4.71;52.47
48964;BME280;34776;48.180;16.420;2023-02-28T07:53:00;100979.72;;;4.82;52.87
48964;BME280;34776;48.180;16.420;2023-02-28T07:55:26;100988.19;;;5.15;52.41
48964;BME280;34776;48.180;16.420;2023-02-28T07:57:52;100988.81;;;5.38;51.60
48964;BME280;34776;48.180;16.420;2023-02-28T08:00:17;100986.00;;;5.54;51.60
48964;BME280;34776;48.180;16.420;2023-02-28T08:02:42;100984.16;;;5.62;51.26
48964;BME280;34776;48.180;16.420;2023-02-28T08:05:08;100981.09;;;5.99;51.27
48964;BME280;34776;48.180;16.420;2023-02-28T08:07:33;100989.50;;;6.80;50.50
48964;BME280;34776;48.180;16.420;2023-02-28T08:09:59;100980.16;;;7.99;48.78
48964;BME280;34776;48.180;16.420;2023-02-28T08:12:24;100979.06;;;8.48;46.97
48964;BME280;34776;48.180;16.420;2023-02-28T08:14:50;100980.41;;;8.66;46.67
48964;BME280;34776;48.180;16.420;2023-02-28T08:17:15;100976.50;;;8.81;45.73
48964;BME280;34776;48.180;16.420;2023-02-28T08:19:41;100977.56;;;8.73;46.00
48964;BME280;34776;48.180;16.420;2023-02-28T08:22:06;100983.63;;;8.79;45.56
48964;BME280;34776;48.180;16.420;2023-02-28T08:24:32;100980.19;;;9.09;45.18
48964;BME280;34776;48.180;16.420;2023-02-28T08:26:58;100976.09;;;9.62;44.49
48964;BME280;34776;48.180;16.420;2023-02-28T08:29:23;100968.31;;;10.15;43.25
48964;BME280;34776;48.180;16.420;2023-02-28T08:31:49;100968.59;;;10.89;43.50
48964;BME280;34776;48.180;16.420;2023-02-28T08:34:15;100975.13;;;13.11;40.50
48964;BME280;34776;48.180;16.420;2023-02-28T08:36:41;100966.00;;;13.96;38.72
48964;BME280;34776;48.180;16.420;2023-02-28T08:39:11;100963.09;;;14.57;37.28
48964;BME280;34776;48.180;16.420;2023-02-28T08:41:36;100963.91;;;16.12;36.10
48964;BME280;34776;48.180;16.420;2023-02-28T08:44:02;100957.09;;;18.29;32.58
48964;BME280;34776;48.180;16.420;2023-02-28T08:46:27;100965.50;;;18.92;31.42
48964;BME280;34776;48.180;16.420;2023-02-28T08:48:54;100966.78;;;19.64;30.86
48964;BME280;34776;48.180;16.420;2023-02-28T08:51:21;100963.34;;;20.25;29.84
48964;BME280;34776;48.180;16.420;2023-02-28T08:53:52;100971.38;;;21.10;28.63
48964;BME280;34776;48.180;16.420;2023-02-28T08:56:18;100975.56;;;21.61;27.84
48964;BME280;34776;48.180;16.420;2023-02-28T08:58:44;100964.38;;;21.77;27.30
48964;BME280;34776;48.180;16.420;2023-02-28T09:01:13;100979.16;;;21.95;26.82
48964;BME280;34776;48.180;16.420;2023-02-28T09:03:39;100973.78;;;21.02;27.17
48964;BME280;34776;48.180;16.420;2023-02-28T09:06:07;100967.97;;;19.60;28.33
48964;BME280;34776;48.180;16.420;2023-02-28T09:08:32;100970.47;;;18.16;29.40
48964;BME280;34776;48.180;16.420;2023-02-28T09:10:58;100980.31;;;17.15;30.42
48964;BME280;34776;48.180;16.420;2023-02-28T09:13:25;100979.66;;;16.50;30.74
48964;BME280;34776;48.180;16.420;2023-02-28T09:15:52;100981.88;;;15.78;31.22
48964;BME280;34776;48.180;16.420;2023-02-28T09:18:17;100979.97;;;14.94;31.77
48964;BME280;34776;48.180;16.420;2023-02-28T09:20:43;100993.13;;;14.07;32.56
48964;BME280;34776;48.180;16.420;2023-02-28T09:23:10;100986.72;;;13.32;33.41
48964;BME280;34776;48.180;16.420;2023-02-28T09:25:36;100991.81;;;13.16;33.78
48964;BME280;34776;48.180;16.420;2023-02-28T09:28:02;100996.25;;;12.53;33.90
48964;BME280;34776;48.180;16.420;2023-02-28T09:30:29;100990.28;;;11.53;35.35
48964;BME280;34776;48.180;16.420;2023-02-28T09:32:54;100993.66;;;10.82;36.29
48964;BME280;34776;48.180;16.420;2023-02-28T09:35:24;100998.81;;;10.31;37.15
48964;BME280;34776;48.180;16.420;2023-02-28T09:37:51;101000.66;;;10.00;37.48
48964;BME280;34776;48.180;16.420;2023-02-28T09:40:21;100994.06;;;9.82;38.10
48964;BME280;34776;48.180;16.420;2023-02-28T09:42:51;100997.50;;;9.55;38.20
48964;BME280;34776;48.180;16.420;2023-02-28T09:45:28;101000.88;;;9.28;38.20
48964;BME280;34776;48.180;16.420;2023-02-28T09:47:59;101009.56;;;9.00;38.84
48964;BME280;34776;48.180;16.420;2023-02-28T09:50:34;101005.91;;;8.70;39.40
48964;BME280;34776;48.180;16.420;2023-02-28T09:53:06;101010.72;;;8.90;39.47
48964;BME280;34776;48.180;16.420;2023-02-28T09:55:39;101007.72;;;9.04;39.33
48964;BME280;34776;48.180;16.420;2023-02-28T09:58:21;101008.41;;;9.12;39.37
48964;BME280;34776;48.180;16.420;2023-02-28T10:00:56;101007.53;;;9.11;39.35
48964;BME280;34776;48.180;16.420;2023-02-28T10:03:31;101009.13;;;9.17;39.35
48964;BME280;34776;48.180;16.420;2023-02-28T10:06:11;101006.84;;;9.36;39.22
48964;BME280;34776;48.180;16.420;2023-02-28T10:09:03;101004.97;;;9.41;39.25
48964;BME280;34776;48.180;16.420;2023-02-28T10:11:32;101006.47;;;9.51;39.41
48964;BME280;34776;48.180;16.420;2023-02-28T10:14:02;100999.84;;;9.66;39.41
48964;BME280;34776;48.180;16.420;2023-02-28T10:16:40;100995.25;;;9.71;39.29
48964;BME280;34776;48.180;16.420;2023-02-28T10:22:00;100998.00;;;10.29;38.31
48964;BME280;34776;48.180;16.420;2023-02-28T10:24:35;100993.25;;;10.09;39.23
48964;BME280;34776;48.180;16.420;2023-02-28T10:27:22;100984.94;;;10.20;38.53
48964;BME280;34776;48.180;16.420;2023-02-28T10:29:53;100984.88;;;10.23;38.99
48964;BME280;34776;48.180;16.420;2023-02-28T10:32:39;100987.44;;;9.96;38.98
48964;BME280;34776;48.180;16.420;2023-02-28T10:37:34;100976.84;;;11.06;38.47
48964;BME280;34776;48.180;16.420;2023-02-28T10:40:05;100971.84;;;11.47;37.53
48964;BME280;34776;48.180;16.420;2023-02-28T10:42:31;100974.16;;;11.56;37.15
48964;BME280;34776;48.180;16.420;2023-02-28T10:47:42;100966.00;;;11.12;38.10
48964;BME280;34776;48.180;16.420;2023-02-28T11:01:16;100950.25;;;12.04;35.44
48964;BME280;34776;48.180;16.420;2023-02-28T11:03:41;100948.38;;;12.06;37.88
48964;BME280;34776;48.180;16.420;2023-02-28T11:06:14;100941.06;;;12.11;36.25
48964;BME280;34776;48.180;16.420;2023-02-28T11:08:46;100950.13;;;11.60;37.04
48964;BME280;34776;48.180;16.420;2023-02-28T11:11:12;100940.72;;;11.73;37.55
48964;BME280;34776;48.180;16.420;2023-02-28T11:13:38;100935.50;;;12.17;37.25
48964;BME280;34776;48.180;16.420;2023-02-28T11:16:06;100932.88;;;11.93;36.68
48964;BME280;34776;48.180;16.420;2023-02-28T11:21:01;100926.88;;;12.32;36.65
48964;BME280;34776;48.180;16.420;2023-02-28T11:23:29;100926.81;;;12.56;35.79
48964;BME280;34776;48.180;16.420;2023-02-28T11:25:58;100922.25;;;12.37;35.40
48964;BME280;34776;48.180;16.420;2023-02-28T11:36:22;100926.31;;;12.46;34.88
48964;BME280;34776;48.180;16.420;2023-02-28T11:38:50;100914.19;;;12.17;34.86
48964;BME280;34776;48.180;16.420;2023-02-28T11:41:28;100913.31;;;12.16;34.09
48964;BME280;34776;48.180;16.420;2023-02-28T11:49:44;100902.41;;;11.77;34.46
48964;BME280;34776;48.180;16.420;2023-02-28T11:55:20;100900.69;;;11.52;33.79
48964;BME280;34776;48.180;16.420;2023-02-28T11:58:09;100890.69;;;11.59;32.90
48964;BME280;34776;48.180;16.420;2023-02-28T12:03:26;100890.47;;;11.87;33.94
48964;BME280;34776;48.180;16.420;2023-02-28T12:11:57;100880.44;;;11.72;33.18
48964;BME280;34776;48.180;16.420;2023-02-28T12:17:00;100881.00;;;11.56;34.02
48964;BME280;34776;48.180;16.420;2023-02-28T12:22:17;100888.28;;;11.75;34.88
48964;BME280;34776;48.180;16.420;2023-02-28T12:24:58;100876.13;;;11.44;33.65
48964;BME280;34776;48.180;16.420;2023-02-28T12:27:29;100869.09;;;11.20;34.53
48964;BME280;34776;48.180;16.420;2023-02-28T12:30:15;100871.44;;;11.04;34.60
48964;BME280;34776;48.180;16.420;2023-02-28T12:32:47;100874.25;;;11.24;34.52
48964;BME280;34776;48.180;16.420;2023-02-28T12:35:18;100861.47;;;11.57;34.71
48964;BME280;34776;48.180;16.420;2023-02-28T12:37:56;100862.81;;;11.91;33.47
48964;BME280;34776;48.180;16.420;2023-02-28T12:40:28;100864.50;;;11.94;33.50
48964;BME280;34776;48.180;16.420;2023-02-28T12:43:00;100862.09;;;11.86;33.85
48964;BME280;34776;48.180;16.420;2023-02-28T12:45:39;100862.59;;;11.74;32.56
48964;BME280;34776;48.180;16.420;2023-02-28T12:48:09;100860.97;;;11.70;33.54
48964;BME280;34776;48.180;16.420;2023-02-28T12:50:39;100858.75;;;11.81;33.44
48964;BME280;34776;48.180;16.420;2023-02-28T12:58:49;100855.16;;;12.26;32.73
48964;BME280;34776;48.180;16.420;2023-02-28T13:01:44;100848.00;;;12.06;31.49
48964;BME280;34776;48.180;16.420;2023-02-28T13:07:33;100851.38;;;10.95;32.91
48964;BME280;34776;48.180;16.420;2023-02-28T13:10:04;100848.06;;;10.88;33.66
48964;BME280;34776;48.180;16.420;2023-02-28T13:12:32;100841.28;;;11.05;33.46
48964;BME280;34776;48.180;16.420;2023-02-28T13:15:22;100847.69;;;11.23;32.76
48964;BME280;34776;48.180;16.420;2023-02-28T13:17:55;100844.09;;;11.47;33.13
48964;BME280;34776;48.180;16.420;2023-02-28T13:20:27;100840.47;;;11.26;33.03
48964;BME280;34776;48.180;16.420;2023-02-28T13:22:55;100836.69;;;11.08;33.41
48964;BME280;34776;48.180;16.420;2023-02-28T13:27:46;100835.06;;;11.04;33.36
48964;BME280;34776;48.180;16.420;2023-02-28T13:33:24;100831.94;;;10.93;33.48
48964;BME280;34776;48.180;16.420;2023-02-28T13:38:45;100830.38;;;10.62;33.53
48964;BME280;34776;48.180;16.420;2023-02-28T13:44:07;100827.88;;;10.83;33.08
48964;BME280;34776;48.180;16.420;2023-02-28T13:47:21;100824.78;;;10.95;33.01
48964;BME280;34776;48.180;16.420;2023-02-28T13:54:55;100833.28;;;11.28;32.49
48964;BME280;34776;48.180;16.420;2023-02-28T14:03:17;100826.63;;;11.40;32.91
48964;BME280;34776;48.180;16.420;2023-02-28T14:06:08;100826.72;;;11.15;33.13
48964;BME280;34776;48.180;16.420;2023-02-28T14:08:35;100834.59;;;10.93;33.86
48964;BME280;34776;48.180;16.420;2023-02-28T14:11:08;100825.66;;;10.70;33.77
48964;BME280;34776;48.180;16.420;2023-02-28T14:13:43;100836.47;;;10.39;33.93
48964;BME280;34776;48.180;16.420;2023-02-28T14:16:17;100827.53;;;10.15;34.32
48964;BME280;34776;48.180;16.420;2023-02-28T14:19:00;100835.50;;;9.87;34.83
48964;BME280;34776;48.180;16.420;2023-02-28T14:21:35;100828.91;;;9.72;34.99
48964;BME280;34776;48.180;16.420;2023-02-28T14:24:29;100821.63;;;9.50;35.27
48964;BME280;34776;48.180;16.420;2023-02-28T14:32:37;100814.63;;;9.48;35.62
48964;BME280;34776;48.180;16.420;2023-02-28T14:37:59;100809.28;;;9.20;36.15
48964;BME280;34776;48.180;16.420;2023-02-28T14:40:33;100818.63;;;9.03;36.50
48964;BME280;34776;48.180;16.420;2023-02-28T14:43:03;100805.41;;;9.02;36.65
48964;BME280;34776;48.180;16.420;2023-02-28T14:45:31;100814.88;;;9.10;36.69
48964;BME280;34776;48.180;16.420;2023-02-28T14:47:58;100801.91;;;9.01;36.64
48964;BME280;34776;48.180;16.420;2023-02-28T14:50:30;100807.59;;;8.86;36.53
48964;BME280;34776;48.180;16.420;2023-02-28T14:52:57;100813.22;;;8.75;36.85
48964;BME280;34776;48.180;16.420;2023-02-28T14:55:28;100820.28;;;8.76;37.12
48964;BME280;34776;48.180;16.420;2023-02-28T14:57:58;100812.97;;;8.84;37.03
48964;BME280;34776;48.180;16.420;2023-02-28T15:00:47;100811.34;;;8.79;37.18
48964;BME280;34776;48.180;16.420;2023-02-28T15:03:37;100818.47;;;8.77;37.43
48964;BME280;34776;48.180;16.420;2023-02-28T15:06:06;100810.63;;;8.73;37.36
48964;BME280;34776;48.180;16.420;2023-02-28T15:08:32;100820.59;;;8.64;37.88